createdAt,value
2018-05-21T00:00:04.358Z,11.70
2018-05-21T00:02:31.826Z,12.00
2018-05-21T00:04:59.278Z,11.80
2018-05-21T00:07:26.742Z,12.00
2018-05-21T00:09:54.194Z,12.10
2018-05-21T00:12:21.650Z,11.80
2018-05-21T00:14:49.110Z,11.90
2018-05-21T00:17:16.573Z,12.10
2018-05-21T00:19:44.022Z,12.20
2018-05-21T00:22:11.486Z,12.20
2018-05-21T00:24:38.943Z,12.20
2018-05-21T00:27:06.405Z,12.30
2018-05-21T00:29:34.631Z,12.40
2018-05-21T00:32:02.091Z,12.40
2018-05-21T00:34:29.546Z,12.30
2018-05-21T00:36:57.010Z,12.30
2018-05-21T00:39:24.465Z,12.40
2018-05-21T00:41:51.921Z,12.30
2018-05-21T00:44:19.379Z,12.50
2018-05-21T00:46:46.841Z,12.50
2018-05-21T00:49:14.297Z,12.40
2018-05-21T00:51:41.769Z,12.30
2018-05-21T00:54:09.226Z,12.20
2018-05-21T00:56:36.678Z,12.20
2018-05-21T00:59:04.140Z,12.20
2018-05-21T01:01:31.590Z,12.40
2018-05-21T01:03:59.045Z,12.20
2018-05-21T01:06:26.905Z,12.20
2018-05-21T01:08:54.365Z,12.20
2018-05-21T01:11:21.821Z,12.20
2018-05-21T01:13:49.291Z,12.00
2018-05-21T01:16:16.741Z,11.80
2018-05-21T01:18:44.202Z,11.70
2018-05-21T01:21:11.652Z,11.80
2018-05-21T01:23:39.115Z,11.80
2018-05-21T01:26:06.558Z,11.80
2018-05-21T01:28:34.024Z,11.70
2018-05-21T01:31:01.474Z,11.70
2018-05-21T01:33:28.933Z,11.60
2018-05-21T01:35:56.385Z,11.60
2018-05-21T01:38:23.851Z,11.60
2018-05-21T01:40:51.298Z,11.30
2018-05-21T01:43:18.757Z,11.10
2018-05-21T01:45:46.214Z,11.20
2018-05-21T01:48:13.670Z,11.00
2018-05-21T01:50:41.126Z,10.90
2018-05-21T01:53:08.589Z,11.20
2018-05-21T01:55:36.042Z,10.90
2018-05-21T01:58:03.505Z,11.10
2018-05-21T02:00:30.958Z,11.00
2018-05-21T02:02:58.413Z,11.00
2018-05-21T02:05:25.870Z,11.10
2018-05-21T02:07:53.329Z,11.60
2018-05-21T02:10:20.782Z,11.40
2018-05-21T02:12:48.242Z,11.40
2018-05-21T02:15:15.688Z,11.50
2018-05-21T02:17:43.153Z,11.50
2018-05-21T02:20:10.597Z,11.60
2018-05-21T02:22:38.057Z,11.50
2018-05-21T02:25:05.514Z,11.40
2018-05-21T02:27:32.973Z,11.40
2018-05-21T02:30:00.429Z,11.40
2018-05-21T02:32:27.889Z,11.40
2018-05-21T02:34:55.342Z,11.40
2018-05-21T02:37:22.805Z,11.50
2018-05-21T02:39:50.264Z,11.30
2018-05-21T02:42:17.714Z,11.30
2018-05-21T02:44:45.169Z,11.60
2018-05-21T02:47:12.618Z,11.30
2018-05-21T02:49:40.082Z,11.60
2018-05-21T02:52:07.534Z,11.60
2018-05-21T02:54:34.999Z,11.30
2018-05-21T02:57:02.454Z,11.30
2018-05-21T02:59:29.917Z,11.30
2018-05-21T03:01:57.370Z,11.60
2018-05-21T03:04:24.833Z,11.30
2018-05-21T03:06:52.282Z,11.30
2018-05-21T03:09:19.750Z,11.20
2018-05-21T03:11:47.202Z,11.20
2018-05-21T03:14:14.666Z,11.20
2018-05-21T03:16:42.113Z,11.30
2018-05-21T03:19:09.582Z,11.30
2018-05-21T03:21:37.034Z,11.30
2018-05-21T03:24:04.490Z,11.50
2018-05-21T03:26:31.951Z,11.30
2018-05-21T03:28:59.413Z,11.30
2018-05-21T03:31:26.870Z,11.20
2018-05-21T03:33:54.334Z,11.20
2018-05-21T03:36:21.782Z,11.20
2018-05-21T03:38:49.245Z,11.10
2018-05-21T03:41:16.706Z,11.10
2018-05-21T03:43:44.167Z,11.00
2018-05-21T03:46:11.617Z,11.20
2018-05-21T03:48:39.073Z,11.40
2018-05-21T03:51:06.529Z,11.40
2018-05-21T03:53:33.999Z,11.60
2018-05-21T03:56:01.456Z,11.50
2018-05-21T03:58:40.814Z,11.80
2018-05-21T04:01:20.174Z,11.80
2018-05-21T04:03:55.261Z,11.70
2018-05-21T04:06:22.719Z,12.00
2018-05-21T04:08:50.182Z,11.80
2018-05-21T04:11:17.633Z,12.00
2018-05-21T04:13:45.090Z,12.10
2018-05-21T04:16:12.541Z,12.40
2018-05-21T04:18:40.048Z,12.40
2018-05-21T04:21:07.457Z,12.50
2018-05-21T04:23:34.925Z,12.60
2018-05-21T04:26:02.374Z,12.70
2018-05-21T04:28:29.838Z,12.80
2018-05-21T04:30:57.290Z,12.90
2018-05-21T04:33:24.749Z,12.90
2018-05-21T04:35:52.205Z,13.10
2018-05-21T04:38:19.670Z,13.20
2018-05-21T04:40:47.119Z,13.40
2018-05-21T04:43:14.574Z,13.40
2018-05-21T04:45:42.029Z,13.40
2018-05-21T04:48:09.477Z,13.50
2018-05-21T04:50:36.943Z,13.40
2018-05-21T04:53:04.393Z,13.60
2018-05-21T04:55:31.855Z,13.70
2018-05-21T04:57:59.309Z,13.70
2018-05-21T05:00:26.787Z,14.00
2018-05-21T05:02:54.237Z,13.80
2018-05-21T05:05:21.694Z,13.90
2018-05-21T05:07:49.146Z,14.00
2018-05-21T05:10:16.614Z,14.10
2018-05-21T05:12:44.069Z,14.20
2018-05-21T05:15:11.540Z,14.20
2018-05-21T05:17:38.993Z,14.30
2018-05-21T05:20:06.462Z,14.40
2018-05-21T05:22:34.682Z,14.50
2018-05-21T05:25:02.139Z,14.30
2018-05-21T05:27:29.590Z,14.60
2018-05-21T05:29:57.053Z,14.70
2018-05-21T05:32:24.509Z,14.70
2018-05-21T05:34:52.565Z,14.70
2018-05-21T05:37:20.014Z,14.70
2018-05-21T05:39:47.473Z,14.80
2018-05-21T05:42:14.925Z,15.00
2018-05-21T05:44:43.154Z,15.20
2018-05-21T05:47:10.605Z,15.00
2018-05-21T05:49:38.065Z,15.20
2018-05-21T05:52:05.518Z,15.30
2018-05-21T05:54:32.986Z,15.20
2018-05-21T05:57:00.441Z,15.20
2018-05-21T05:59:27.911Z,15.30
2018-05-21T06:01:55.362Z,15.40
2018-05-21T06:04:22.838Z,15.50
2018-05-21T06:06:50.306Z,15.70
2018-05-21T06:09:18.534Z,15.80
2018-05-21T06:11:45.986Z,16.00
2018-05-21T06:14:13.455Z,15.90
2018-05-21T06:16:40.909Z,15.90
2018-05-21T06:19:08.361Z,16.10
2018-05-21T06:21:35.857Z,16.20
2018-05-21T06:24:03.292Z,16.30
2018-05-21T06:26:30.737Z,16.30
2018-05-21T06:28:58.198Z,16.50
2018-05-21T06:31:25.654Z,16.80
2018-05-21T06:33:53.120Z,16.90
2018-05-21T06:36:20.581Z,17.00
2018-05-21T06:38:48.049Z,17.10
2018-05-21T06:41:15.506Z,17.00
2018-05-21T06:43:42.961Z,16.90
2018-05-21T06:46:10.433Z,16.90
2018-05-21T06:48:38.654Z,17.20
2018-05-21T06:51:06.119Z,17.00
2018-05-21T06:53:33.586Z,17.20
2018-05-21T06:56:01.041Z,17.40
2018-05-21T06:58:28.523Z,17.50
2018-05-21T07:00:56.225Z,17.60
2018-05-21T07:03:24.523Z,17.30
2018-05-21T07:05:51.994Z,17.20
2018-05-21T07:08:19.449Z,17.30
2018-05-21T07:10:46.930Z,17.40
2018-05-21T07:13:14.406Z,17.50
2018-05-21T07:15:42.625Z,17.20
2018-05-21T07:18:10.579Z,17.00
2018-05-21T07:20:37.961Z,17.30
2018-05-21T07:23:05.414Z,17.30
2018-05-21T07:25:34.175Z,17.60
2018-05-21T07:28:01.623Z,17.80
2018-05-21T07:30:29.090Z,17.90
2018-05-21T07:32:56.544Z,18.00
2018-05-21T07:35:24.014Z,17.70
2018-05-21T07:37:51.467Z,17.60
2018-05-21T07:40:18.927Z,17.50
2018-05-21T07:42:46.384Z,17.70
2018-05-21T07:45:13.846Z,17.70
2018-05-21T07:47:41.300Z,17.70
2018-05-21T07:50:08.761Z,17.60
2018-05-21T07:52:36.210Z,17.80
2018-05-21T07:55:03.677Z,18.20
2018-05-21T07:57:31.133Z,18.40
2018-05-21T07:59:58.594Z,18.40
2018-05-21T08:02:26.049Z,18.40
2018-05-21T08:04:53.531Z,18.40
2018-05-21T08:07:21.002Z,18.30
2018-05-21T08:09:48.465Z,18.30
2018-05-21T08:12:15.922Z,18.40
2018-05-21T08:14:43.505Z,18.50
2018-05-21T08:17:10.887Z,18.40
2018-05-21T08:19:38.356Z,18.40
2018-05-21T08:22:05.835Z,18.30
2018-05-21T08:24:33.294Z,18.30
2018-05-21T08:27:00.757Z,18.10
2018-05-21T08:29:28.229Z,17.80
2018-05-21T08:31:55.701Z,17.70
2018-05-21T08:34:23.985Z,18.20
2018-05-21T08:36:52.201Z,18.50
2018-05-21T08:39:19.672Z,18.20
2018-05-21T08:41:47.129Z,18.80
2018-05-21T08:44:14.586Z,18.90
2018-05-21T08:46:42.055Z,18.90
2018-05-21T08:49:09.546Z,19.00
2018-05-21T08:51:37.840Z,19.10
2018-05-21T08:54:05.290Z,19.10
2018-05-21T08:56:32.758Z,19.20
2018-05-21T08:59:01.129Z,19.50
2018-05-21T09:01:28.593Z,19.80
2018-05-21T09:03:56.050Z,19.80
2018-05-21T09:06:23.681Z,19.60
2018-05-21T09:08:51.897Z,19.60
2018-05-21T09:11:19.361Z,19.40
2018-05-21T09:13:46.837Z,19.80
2018-05-21T09:16:14.292Z,20.00
2018-05-21T09:18:41.769Z,20.20
2018-05-21T09:21:09.301Z,20.20
2018-05-21T09:23:36.762Z,20.10
2018-05-21T09:26:04.308Z,19.90
2018-05-21T09:28:31.698Z,19.50
2018-05-21T09:30:59.207Z,19.80
2018-05-21T09:33:26.677Z,19.90
2018-05-21T09:35:54.154Z,20.10
2018-05-21T09:38:21.665Z,20.40
2018-05-21T09:40:49.147Z,20.50
2018-05-21T09:43:16.598Z,20.50
2018-05-21T09:45:44.120Z,20.70
2018-05-21T09:48:12.416Z,20.70
2018-05-21T09:50:39.857Z,20.70
2018-05-21T09:53:07.310Z,20.70
2018-05-21T09:55:34.778Z,20.50
2018-05-21T09:58:02.250Z,20.20
2018-05-21T10:00:29.761Z,20.20
2018-05-21T10:02:59.025Z,20.50
2018-05-21T10:05:26.485Z,20.80
2018-05-21T10:07:53.971Z,20.60
2018-05-21T10:10:21.426Z,20.60
2018-05-21T10:12:48.877Z,20.70
2018-05-21T10:15:16.346Z,21.00
2018-05-21T10:17:43.938Z,20.90
2018-05-21T10:20:12.164Z,20.60
2018-05-21T10:22:39.618Z,20.60
2018-05-21T10:25:07.514Z,20.60
2018-05-21T10:27:34.962Z,20.50
2018-05-21T10:30:02.422Z,20.30
2018-05-21T10:32:29.886Z,20.40
2018-05-21T10:34:57.338Z,20.60
2018-05-21T10:37:24.809Z,20.90
2018-05-21T10:39:52.253Z,21.00
2018-05-21T10:42:19.741Z,20.90
2018-05-21T10:44:47.961Z,21.00
2018-05-21T10:47:15.512Z,20.80
2018-05-21T10:49:42.958Z,21.20
2018-05-21T10:52:10.422Z,20.80
2018-05-21T10:54:37.936Z,20.80
2018-05-21T10:57:05.454Z,20.90
2018-05-21T10:59:32.906Z,20.80
2018-05-21T11:02:00.373Z,20.70
2018-05-21T11:04:27.830Z,20.80
2018-05-21T11:06:55.358Z,20.80
2018-05-21T11:09:23.577Z,20.70
2018-05-21T11:11:51.037Z,20.60
2018-05-21T11:14:19.522Z,20.80
2018-05-21T11:16:47.039Z,20.60
2018-05-21T11:19:14.503Z,20.40
2018-05-21T11:21:42.757Z,20.30
2018-05-21T11:24:10.213Z,20.30
2018-05-21T11:26:38.463Z,20.10
2018-05-21T11:29:05.922Z,20.20
2018-05-21T11:31:33.405Z,20.40
2018-05-21T11:34:01.632Z,20.50
2018-05-21T11:36:29.099Z,20.70
2018-05-21T11:38:56.545Z,20.70
2018-05-21T11:41:24.005Z,21.00
2018-05-21T11:43:51.497Z,21.20
2018-05-21T11:46:19.817Z,21.00
2018-05-21T11:48:48.040Z,21.00
2018-05-21T11:51:15.505Z,20.90
2018-05-21T11:53:43.733Z,21.40
2018-05-21T11:56:11.187Z,21.30
2018-05-21T11:58:49.317Z,21.50
2018-05-21T12:01:16.798Z,21.50
2018-05-21T12:03:44.245Z,21.10
2018-05-21T12:06:11.735Z,21.00
2018-05-21T12:08:39.965Z,21.10
2018-05-21T12:11:07.435Z,21.00
2018-05-21T12:13:34.901Z,21.20
2018-05-21T12:16:02.364Z,21.40
2018-05-21T12:18:30.758Z,21.20
2018-05-21T12:20:58.994Z,21.10
2018-05-21T12:23:26.449Z,21.10
2018-05-21T12:25:53.920Z,21.10
2018-05-21T12:28:21.398Z,21.60
2018-05-21T12:30:49.658Z,20.80
2018-05-21T12:33:17.101Z,20.80
2018-05-21T12:35:44.566Z,20.80
2018-05-21T12:38:12.107Z,21.10
2018-05-21T12:40:39.474Z,21.20
2018-05-21T12:43:06.937Z,21.30
2018-05-21T12:45:35.284Z,21.40
2018-05-21T12:48:03.543Z,21.00
2018-05-21T12:50:31.200Z,21.40
2018-05-21T12:52:58.734Z,21.60
2018-05-21T12:55:26.958Z,21.90
2018-05-21T12:57:54.442Z,21.60
2018-05-21T13:00:21.914Z,21.60
2018-05-21T13:02:49.375Z,21.60
2018-05-21T13:05:16.903Z,21.90
2018-05-21T13:07:45.134Z,21.40
2018-05-21T13:10:13.387Z,21.90
2018-05-21T13:12:41.626Z,22.00
2018-05-21T13:15:09.086Z,22.20
2018-05-21T13:17:36.545Z,22.20
2018-05-21T13:20:23.422Z,22.00
2018-05-21T13:22:50.919Z,22.20
2018-05-21T13:25:18.395Z,22.10
2018-05-21T13:27:45.857Z,22.20
2018-05-21T13:30:13.415Z,22.10
2018-05-21T13:32:41.838Z,22.10
2018-05-21T13:35:09.358Z,22.10
2018-05-21T13:37:36.849Z,22.10
2018-05-21T13:40:04.318Z,22.40
2018-05-21T13:42:31.781Z,22.40
2018-05-21T13:44:59.247Z,21.80
2018-05-21T13:47:26.702Z,21.60
2018-05-21T13:49:54.157Z,21.60
2018-05-21T13:52:21.644Z,21.80
2018-05-21T13:54:49.109Z,21.60
2018-05-21T13:57:16.574Z,21.70
2018-05-21T13:59:44.040Z,21.80
2018-05-21T14:02:11.506Z,21.60
2018-05-21T14:04:39.725Z,21.10
2018-05-21T14:07:07.193Z,21.10
2018-05-21T14:09:34.642Z,20.90
2018-05-21T14:12:02.113Z,20.80
2018-05-21T14:14:29.567Z,20.70
2018-05-21T14:16:57.031Z,20.80
2018-05-21T14:19:24.484Z,20.70
2018-05-21T14:21:51.961Z,20.70
2018-05-21T14:24:19.422Z,20.70
2018-05-21T14:26:46.890Z,20.70
2018-05-21T14:29:15.326Z,20.80
2018-05-21T14:31:43.278Z,20.80
2018-05-21T14:34:10.745Z,20.80
2018-05-21T14:36:38.216Z,20.80
2018-05-21T14:39:05.685Z,20.80
2018-05-21T14:41:33.146Z,20.60
2018-05-21T14:44:00.630Z,20.60
2018-05-21T14:46:28.861Z,20.70
2018-05-21T14:48:56.327Z,20.70
2018-05-21T14:51:23.803Z,20.50
2018-05-21T14:53:51.262Z,20.60
2018-05-21T14:56:18.714Z,20.40
2018-05-21T14:58:46.182Z,20.40
2018-05-21T15:01:13.646Z,20.50
2018-05-21T15:03:41.117Z,20.60
2018-05-21T15:06:09.349Z,20.70
2018-05-21T15:08:36.805Z,20.70
2018-05-21T15:11:04.257Z,20.70
2018-05-21T15:13:31.734Z,20.60
2018-05-21T15:15:59.175Z,20.40
2018-05-21T15:18:26.813Z,20.40
2018-05-21T15:20:54.322Z,20.40
2018-05-21T15:23:21.789Z,20.40
2018-05-21T15:25:49.233Z,20.30
2018-05-21T15:28:16.701Z,20.30
2018-05-21T15:30:44.181Z,20.40
2018-05-21T15:33:11.645Z,20.40
2018-05-21T15:35:39.105Z,20.50
2018-05-21T15:38:06.566Z,20.40
2018-05-21T15:40:34.023Z,20.40
2018-05-21T15:43:01.484Z,20.20
2018-05-21T15:45:28.938Z,20.10
2018-05-21T15:47:56.389Z,20.10
2018-05-21T15:50:23.845Z,20.10
2018-05-21T15:52:52.166Z,19.90
2018-05-21T15:55:19.727Z,20.00
2018-05-21T15:57:47.207Z,19.80
2018-05-21T16:00:15.537Z,19.90
2018-05-21T16:02:43.094Z,20.00
2018-05-21T16:05:10.584Z,19.80
2018-05-21T16:07:38.141Z,19.90
2018-05-21T16:10:06.402Z,19.80
2018-05-21T16:12:33.978Z,20.20
2018-05-21T16:15:02.202Z,19.80
2018-05-21T16:17:29.669Z,20.10
2018-05-21T16:19:57.149Z,19.80
2018-05-21T16:22:24.608Z,19.80
2018-05-21T16:24:52.116Z,19.80
2018-05-21T16:27:21.341Z,19.60
2018-05-21T16:29:48.829Z,19.60
2018-05-21T16:32:16.369Z,19.50
2018-05-21T16:34:43.838Z,19.50
2018-05-21T16:37:11.307Z,19.50
2018-05-21T16:39:38.770Z,19.50
2018-05-21T16:42:06.234Z,19.50
2018-05-21T16:44:33.686Z,19.50
2018-05-21T16:47:04.365Z,19.50
2018-05-21T16:49:31.860Z,19.40
2018-05-21T16:51:59.421Z,19.40
2018-05-21T16:54:26.998Z,19.40
2018-05-21T16:56:54.654Z,19.30
2018-05-21T16:59:22.150Z,19.30
2018-05-21T17:01:50.454Z,19.20
2018-05-21T17:04:17.985Z,19.20
2018-05-21T17:06:46.312Z,19.00
2018-05-21T17:09:13.982Z,18.80
2018-05-21T17:11:41.544Z,19.00
2018-05-21T17:14:09.182Z,19.00
2018-05-21T17:16:36.686Z,19.00
2018-05-21T17:19:04.981Z,18.80
2018-05-21T17:21:32.463Z,18.80
2018-05-21T17:24:00.452Z,18.80
2018-05-21T17:26:28.134Z,18.80
2018-05-21T17:28:55.610Z,18.80
2018-05-21T17:31:23.174Z,18.90
2018-05-21T17:33:50.633Z,18.80
2018-05-21T17:36:18.094Z,18.80
2018-05-21T17:38:45.568Z,18.70
2018-05-21T17:41:13.808Z,18.50
2018-05-21T17:43:41.265Z,18.20
2018-05-21T17:46:08.726Z,18.50
2018-05-21T17:48:36.266Z,18.50
2018-05-21T17:51:04.483Z,18.50
2018-05-21T17:53:32.713Z,18.40
2018-05-21T17:56:00.190Z,18.40
2018-05-21T17:58:27.649Z,18.30
2018-05-21T18:00:55.119Z,18.20
2018-05-21T18:03:22.569Z,18.20
2018-05-21T18:05:51.211Z,18.10
2018-05-21T18:08:18.758Z,18.00
2018-05-21T18:10:46.981Z,17.80
2018-05-21T18:13:14.441Z,17.60
2018-05-21T18:15:41.890Z,17.70
2018-05-21T18:18:09.361Z,17.70
2018-05-21T18:20:36.814Z,17.80
2018-05-21T18:23:04.271Z,18.20
2018-05-21T18:25:31.729Z,18.70
2018-05-21T18:27:59.210Z,19.10
2018-05-21T18:30:26.698Z,19.40
2018-05-21T18:32:54.161Z,19.40
2018-05-21T18:35:21.616Z,19.00
2018-05-21T18:37:49.081Z,18.50
2018-05-21T18:40:16.624Z,18.10
2018-05-21T18:42:44.042Z,17.70
2018-05-21T18:45:11.488Z,17.40
2018-05-21T18:47:38.954Z,17.20
2018-05-21T18:50:06.411Z,17.10
2018-05-21T18:52:33.873Z,16.90
2018-05-21T18:55:01.333Z,16.90
2018-05-21T18:57:28.794Z,16.70
2018-05-21T18:59:56.260Z,16.60
2018-05-21T19:02:23.710Z,16.50
2018-05-21T19:04:51.174Z,16.40
2018-05-21T19:07:18.629Z,16.30
2018-05-21T19:09:46.093Z,16.20
2018-05-21T19:12:14.325Z,16.10
2018-05-21T19:14:41.798Z,16.20
2018-05-21T19:17:09.261Z,15.90
2018-05-21T19:19:36.729Z,15.90
2018-05-21T19:22:04.183Z,15.80
2018-05-21T19:24:31.662Z,15.70
2018-05-21T19:26:59.877Z,15.70
2018-05-21T19:29:27.345Z,16.10
2018-05-21T19:31:54.800Z,15.60
2018-05-21T19:34:22.265Z,15.50
2018-05-21T19:36:49.725Z,15.50
2018-05-21T19:39:17.181Z,15.40
2018-05-21T19:41:44.634Z,15.30
2018-05-21T19:44:12.099Z,15.30
2018-05-21T19:46:39.560Z,15.10
2018-05-21T19:49:07.015Z,15.00
2018-05-21T19:51:34.470Z,15.00
2018-05-21T19:54:01.934Z,15.10
2018-05-21T19:56:29.385Z,15.20
2018-05-21T19:58:56.845Z,15.20
2018-05-21T20:01:24.306Z,15.30
2018-05-21T20:03:51.762Z,15.30
2018-05-21T20:06:19.213Z,15.30
2018-05-21T20:08:46.673Z,15.30
2018-05-21T20:11:14.130Z,15.30
2018-05-21T20:13:41.660Z,15.10
2018-05-21T20:16:09.061Z,15.10
2018-05-21T20:18:36.525Z,15.10
2018-05-21T20:21:03.988Z,15.10
2018-05-21T20:23:31.453Z,15.00
2018-05-21T20:25:59.674Z,15.00
2018-05-21T20:28:27.133Z,15.00
2018-05-21T20:30:54.585Z,15.00
2018-05-21T20:33:22.050Z,15.00
2018-05-21T20:35:49.501Z,15.00
2018-05-21T20:38:16.962Z,15.00
2018-05-21T20:40:44.417Z,14.90
2018-05-21T20:43:12.650Z,14.90
2018-05-21T20:45:40.871Z,14.90
2018-05-21T20:48:08.318Z,15.10
2018-05-21T20:50:35.781Z,14.90
2018-05-21T20:53:03.248Z,15.00
2018-05-21T20:55:30.713Z,15.00
2018-05-21T20:57:58.157Z,14.90
2018-05-21T21:00:25.633Z,14.80
2018-05-21T21:02:53.089Z,14.70
2018-05-21T21:05:20.559Z,14.60
2018-05-21T21:07:48.013Z,14.60
2018-05-21T21:10:15.474Z,14.60
2018-05-21T21:12:42.930Z,14.60
2018-05-21T21:15:10.397Z,14.60
2018-05-21T21:17:37.850Z,14.70
2018-05-21T21:20:05.313Z,14.60
2018-05-21T21:22:32.762Z,14.60
2018-05-21T21:25:00.224Z,14.80
2018-05-21T21:27:27.685Z,14.80
2018-05-21T21:29:55.150Z,14.80
2018-05-21T21:32:23.433Z,14.70
2018-05-21T21:34:50.837Z,14.80
2018-05-21T21:37:18.306Z,14.70
2018-05-21T21:39:45.761Z,14.70
2018-05-21T21:42:13.221Z,14.80
2018-05-21T21:44:40.764Z,14.80
2018-05-21T21:47:08.905Z,14.70
2018-05-21T21:49:37.125Z,14.70
2018-05-21T21:52:04.586Z,14.80
2018-05-21T21:54:32.049Z,14.70
2018-05-21T21:56:59.501Z,14.70
2018-05-21T21:59:26.958Z,14.70
2018-05-21T22:01:54.413Z,14.70
2018-05-21T22:04:21.881Z,14.60
2018-05-21T22:06:49.330Z,14.70
2018-05-21T22:09:16.793Z,14.70
2018-05-21T22:11:44.246Z,14.70
2018-05-21T22:14:11.711Z,14.70
2018-05-21T22:16:39.167Z,14.70
2018-05-21T22:19:06.628Z,14.80
2018-05-21T22:21:34.077Z,14.90
2018-05-21T22:24:01.539Z,14.80
2018-05-21T22:26:29.002Z,14.70
2018-05-21T22:28:56.457Z,14.70
2018-05-21T22:31:23.922Z,14.60
2018-05-21T22:33:51.386Z,14.60
2018-05-21T22:36:18.835Z,14.50
2018-05-21T22:38:46.294Z,14.50
2018-05-21T22:41:13.741Z,14.60
2018-05-21T22:43:41.201Z,14.60
2018-05-21T22:46:08.678Z,14.60
2018-05-21T22:48:36.893Z,14.60
2018-05-21T22:51:04.361Z,14.30
2018-05-21T22:53:31.816Z,14.60
2018-05-21T22:55:59.281Z,14.60
2018-05-21T22:58:26.741Z,14.60
2018-05-21T23:00:54.198Z,14.50
2018-05-21T23:03:21.650Z,14.50
2018-05-21T23:05:49.103Z,14.60
2018-05-21T23:08:16.549Z,14.50
2018-05-21T23:10:44.014Z,14.50
2018-05-21T23:13:11.474Z,14.50
2018-05-21T23:15:39.702Z,14.40
2018-05-21T23:18:07.922Z,14.40
2018-05-21T23:20:35.383Z,14.20
2018-05-21T23:23:02.844Z,14.40
2018-05-21T23:25:30.305Z,14.30
2018-05-21T23:27:57.757Z,14.40
2018-05-21T23:30:25.221Z,14.30
2018-05-21T23:32:52.674Z,14.40
2018-05-21T23:35:20.137Z,14.40
2018-05-21T23:37:47.605Z,14.30
2018-05-21T23:40:15.082Z,14.30
2018-05-21T23:42:42.525Z,14.30
2018-05-21T23:45:09.993Z,14.30
2018-05-21T23:47:37.442Z,14.20
2018-05-21T23:50:04.912Z,14.30
2018-05-21T23:52:32.366Z,14.30
2018-05-21T23:54:59.813Z,14.30
2018-05-21T23:57:27.267Z,14.20
2018-05-21T23:59:54.730Z,14.20
